Kenosha, WI (53141)

7:47 PM CDT on April 19, 2015 (GMT -0500)
Forest Park | | Change Station
CLOSE
Current Station
Personal Weather Station
Location: Kenosha, WI
Elevation: 650 ft
Nearby Weather Stations

Elev 650 ft 42.57 °N, 87.86 °W | Updated 14 minutes ago

Rain
Rain
47.1 °F
Feels Like 47 °F
N
1.6
Wind Variable Wind from North
Gusts 6.9 mph

Today
High -- | Low -- °F
--% Chance of Precip.
Yesterday
High -- | Low -- °F
Precip. -- in
6:04 AM 7:37 PM
New Moon, 2% visible
Pressure 29.50 in
Visibility 2.5 miles
Clouds Scattered Clouds 1000 ft
Mostly Cloudy 1800 ft
Overcast 8000 ft
Windchill 47 °F
Dew Point 44 °F
Humidity 89%
Rainfall 0.30 in
Snow Depth Not available.
UV 0 out of 12
Pollen 4.30 out of 12
Air Quality Not available.
Flu Activity Local Activity
SPECI KENW 200004Z 05008KT 2 1/2SM RA BR SCT010 BKN018 OVC080 08/07 A2950 RMK AO2 P0003 T00830067

More Conditions Fewer Conditions

Pressure 29.50 in
Visibility 2.5 miles
Clouds Scattered Clouds 1000 ft
Mostly Cloudy 1800 ft
Overcast 8000 ft
Windchill 47 °F
Dew Point 44 °F
Humidity 89%
Rainfall 0.30 in
Snow Depth Not available.
UV 0 out of 12
Pollen 4.30 out of 12
Air Quality Not available.
Flu Activity Local Activity
SPECI KENW 200004Z 05008KT 2 1/2SM RA BR SCT010 BKN018 OVC080 08/07 A2950 RMK AO2 P0003 T00830067

More Conditions Fewer Conditions

10-Day Weather Forecast

Almanac

Astronomy

Apr. 19, 2015 Rise Set
Actual Time
Civil Twilight
Nautical Twilight
Astronomical Twilight
Moon
Length of Visible Light
Length of Day
Tomorrow will be .
, % of the Moon is Illuminated

Today's Extremes

State Highs State Lows

Community

WunderPhotos

Upload Photos

1,815,065 photos uploaded!

WunderBlogs® & News

Nearby

Air Quality

  Air Quality AQ Index Pollutant
Not available.

Snow Depth

Station Depth Elevation

Earthquake Activity

City Distance Mag. Time & Date
Minimum magnitude displayed is 2.5.

Coastal Water Temperatures

Place Temperature

Stations

Nearby Weather Stations

Station Location Temp. Windchill Dew Point Humidity Wind Precip. Elev Updated Type